Time;durP1;ratioP1;P1;durP2;ratioP2;P2;SDS_P1;SDS_P2;PMS_P1;PMS_P2;Temp;Humidity;BMP_temperature;BMP_pressure;BME280_temperature;BME280_humidity;BME280_pressure;Samples;Min_cycle;Max_cycle;Signal;HPM_P1;HPM_P2
2023/07/28 00:00:54;;;;;;;10.70;9.75;;;19.60;99.90;;;;;;6213277;23;20001;-74
2023/07/28 00:03:20;;;;;;;10.57;9.77;;;19.60;99.90;;;;;;6186679;23;20074;-74
2023/07/28 00:05:45;;;;;;;12.27;11.10;;;19.60;99.90;;;;;;6213160;23;19997;-74
2023/07/28 00:08:11;;;;;;;10.68;9.77;;;19.70;99.90;;;;;;6212916;23;20001;-74
2023/07/28 00:10:41;;;;;;;9.57;8.68;;;19.70;99.90;;;;;;6213206;23;20008;-74
2023/07/28 00:13:06;;;;;;;11.02;10.13;;;19.70;99.90;;;;;;6213169;23;20008;-74
2023/07/28 00:15:32;;;;;;;10.93;10.02;;;19.70;99.90;;;;;;6213398;23;20005;-75
2023/07/28 00:17:59;;;;;;;9.48;8.63;;;19.60;99.90;;;;;;6213324;23;20000;-75
2023/07/28 00:20:25;;;;;;;10.13;9.27;;;19.70;99.90;;;;;;6212979;23;20075;-75
2023/07/28 00:22:50;;;;;;;10.07;9.18;;;19.70;99.90;;;;;;6212306;23;20024;-75
2023/07/28 00:25:16;;;;;;;10.63;9.70;;;19.70;99.90;;;;;;6211743;23;20001;-75
2023/07/28 00:27:41;;;;;;;11.25;9.98;;;19.70;99.90;;;;;;6212368;23;20005;-75
2023/07/28 00:30:08;;;;;;;10.80;9.90;;;19.70;99.90;;;;;;6185022;23;20004;-75
2023/07/28 00:32:33;;;;;;;9.82;9.02;;;19.70;99.90;;;;;;6213116;23;20046;-75
2023/07/28 00:34:59;;;;;;;11.00;9.50;;;19.70;99.90;;;;;;6212935;23;20001;-75
2023/07/28 00:37:24;;;;;;;10.98;9.98;;;19.70;99.90;;;;;;6212499;23;20075;-75
2023/07/28 00:39:50;;;;;;;10.18;9.35;;;19.70;99.90;;;;;;6213005;23;20008;-75
2023/07/28 00:42:15;;;;;;;11.05;10.15;;;19.70;99.90;;;;;;6212860;23;20000;-75
2023/07/28 00:44:41;;;;;;;9.13;8.32;;;19.70;99.90;;;;;;6212950;23;20456;-75
2023/07/28 00:47:06;;;;;;;11.88;10.82;;;19.70;99.90;;;;;;6212776;23;19993;-75
2023/07/28 00:49:32;;;;;;;10.27;9.40;;;19.70;99.90;;;;;;6212907;23;20008;-75
2023/07/28 00:51:58;;;;;;;9.20;8.43;;;19.70;99.90;;;;;;6186012;23;20088;-75
2023/07/28 00:54:23;;;;;;;9.98;9.15;;;19.60;99.90;;;;;;6209230;23;20016;-75
2023/07/28 00:56:50;;;;;;;8.93;8.05;;;19.60;99.90;;;;;;6212778;23;20051;-75
2023/07/28 00:59:16;;;;;;;10.57;8.93;;;19.70;99.90;;;;;;6212773;23;19996;-75
2023/07/28 01:01:42;;;;;;;10.15;9.15;;;19.70;99.90;;;;;;6213089;23;20430;-75
2023/07/28 01:04:08;;;;;;;9.30;8.40;;;19.70;99.90;;;;;;6212444;23;20008;-75
2023/07/28 01:06:51;;;;;;;9.52;8.73;;;19.70;99.90;;;;;;6212566;23;20150;-74
2023/07/28 01:09:21;;;;;;;10.02;9.07;;;19.70;99.90;;;;;;6212692;23;20058;-74
2023/07/28 01:11:57;;;;;;;9.93;8.93;;;19.70;99.90;;;;;;6212831;23;20382;-74
2023/07/28 01:14:22;;;;;;;8.52;7.85;;;19.70;99.90;;;;;;6212627;23;20000;-75
2023/07/28 01:16:48;;;;;;;9.38;8.52;;;19.70;99.90;;;;;;6211127;23;20013;-75
2023/07/28 01:19:17;;;;;;;10.65;9.60;;;19.70;99.90;;;;;;6212569;23;20373;-75
2023/07/28 01:21:45;;;;;;;11.60;10.35;;;19.70;99.90;;;;;;6212200;23;20382;-75
2023/07/28 01:24:37;;;;;;;11.82;10.73;;;19.70;99.90;;;;;;6212766;23;20032;-74
2023/07/28 01:27:03;;;;;;;11.73;10.52;;;19.70;99.90;;;;;;6211015;23;20054;-75
2023/07/28 01:29:29;;;;;;;12.10;10.85;;;19.70;99.90;;;;;;6212729;23;20015;-75
2023/07/28 01:31:58;;;;;;;11.98;10.52;;;19.70;99.90;;;;;;6212472;23;19993;-74
2023/07/28 01:34:24;;;;;;;12.27;11.18;;;19.70;99.90;;;;;;6210362;23;20083;-75
2023/07/28 01:36:49;;;;;;;14.73;11.35;;;19.70;99.90;;;;;;6212585;23;20027;-75
2023/07/28 01:39:15;;;;;;;11.60;10.35;;;19.70;99.90;;;;;;6212674;23;20417;-75
2023/07/28 01:41:43;;;;;;;12.23;11.13;;;19.70;99.90;;;;;;6212520;23;20323;-75
2023/07/28 01:44:09;;;;;;;11.88;10.75;;;19.70;99.90;;;;;;6211842;23;20050;-75
2023/07/28 01:46:34;;;;;;;10.77;9.68;;;19.70;99.90;;;;;;6211716;23;20078;-75
2023/07/28 01:49:00;;;;;;;13.32;11.93;;;19.70;99.90;;;;;;6211268;23;20000;-74
2023/07/28 01:51:26;;;;;;;11.52;10.32;;;19.70;99.90;;;;;;6209602;23;20008;-75
2023/07/28 01:53:51;;;;;;;12.45;11.35;;;19.70;99.90;;;;;;6210408;23;20024;-75
2023/07/28 01:56:17;;;;;;;12.88;11.57;;;19.70;99.90;;;;;;6212283;23;20011;-75
2023/07/28 01:58:42;;;;;;;13.68;11.60;;;19.70;99.90;;;;;;6212510;23;20029;-74
2023/07/28 02:01:08;;;;;;;15.93;12.25;;;19.70;99.90;;;;;;6211989;23;20008;-75
2023/07/28 02:03:33;;;;;;;13.82;12.50;;;19.70;99.90;;;;;;6212070;23;20039;-75
2023/07/28 02:06:00;;;;;;;13.93;11.40;;;19.70;99.90;;;;;;6210463;23;20447;-74
2023/07/28 02:08:26;;;;;;;12.02;10.82;;;19.70;99.90;;;;;;6211869;23;20000;-75
2023/07/28 02:10:53;;;;;;;13.40;11.98;;;19.70;99.90;;;;;;6212090;23;20088;-75
2023/07/28 02:13:19;;;;;;;12.68;11.35;;;19.70;99.90;;;;;;6212534;23;20047;-75
2023/07/28 02:15:44;;;;;;;16.30;14.10;;;19.70;99.90;;;;;;6212050;23;20004;-75
2023/07/28 02:18:10;;;;;;;16.38;14.68;;;19.70;99.90;;;;;;6211628;23;20004;-75
2023/07/28 02:20:35;;;;;;;17.23;14.57;;;19.70;99.90;;;;;;6212170;23;20135;-75
2023/07/28 02:23:02;;;;;;;18.15;13.15;;;19.70;99.90;;;;;;6210632;23;20383;-75
2023/07/28 02:25:27;;;;;;;18.45;15.10;;;19.70;99.90;;;;;;6210806;23;20015;-75
2023/07/28 02:27:53;;;;;;;17.77;14.50;;;19.70;99.90;;;;;;6210407;23;20330;-75
2023/07/28 02:30:18;;;;;;;21.17;16.25;;;19.70;99.90;;;;;;6211726;23;20064;-75
2023/07/28 02:32:44;;;;;;;18.85;15.35;;;19.70;99.90;;;;;;6209761;23;20009;-75
2023/07/28 02:35:10;;;;;;;15.88;13.95;;;19.70;99.90;;;;;;6212009;23;20322;-75
2023/07/28 02:37:36;;;;;;;20.15;14.68;;;19.70;99.90;;;;;;6212081;23;20047;-75
2023/07/28 02:40:01;;;;;;;17.08;14.20;;;19.70;99.90;;;;;;6212099;23;20373;-75
2023/07/28 02:42:27;;;;;;;16.17;13.88;;;19.70;99.90;;;;;;6210608;23;20100;-75
2023/07/28 02:44:52;;;;;;;18.63;14.07;;;19.70;99.90;;;;;;6211930;23;20001;-75
2023/07/28 02:47:18;;;;;;;23.60;16.35;;;19.70;99.90;;;;;;6209656;23;20054;-75
2023/07/28 02:49:45;;;;;;;20.70;15.35;;;19.80;99.90;;;;;;6210378;23;20079;-74
2023/07/28 02:52:11;;;;;;;20.77;15.38;;;19.80;99.90;;;;;;6211896;23;20001;-75
2023/07/28 02:54:36;;;;;;;18.05;15.27;;;19.70;99.90;;;;;;6211981;23;20001;-75
2023/07/28 02:57:02;;;;;;;20.88;15.85;;;19.70;99.90;;;;;;6211856;23;20011;-75
2023/07/28 02:59:28;;;;;;;19.77;15.43;;;19.70;99.90;;;;;;6212133;23;20442;-75
2023/07/28 03:01:53;;;;;;;22.55;17.08;;;19.70;99.90;;;;;;6184604;23;20005;-75
2023/07/28 03:04:22;;;;;;;22.05;15.63;;;19.80;99.90;;;;;;6185114;23;20009;-75
2023/07/28 03:06:47;;;;;;;20.35;16.63;;;19.80;99.90;;;;;;6211793;23;20487;-75
2023/07/28 03:09:13;;;;;;;21.42;15.02;;;19.70;99.90;;;;;;6211727;23;20024;-75
2023/07/28 03:11:39;;;;;;;18.77;16.30;;;19.70;99.90;;;;;;6212010;23;20419;-75
2023/07/28 03:14:04;;;;;;;21.45;16.23;;;19.70;99.90;;;;;;6185013;23;20000;-75
2023/07/28 03:16:30;;;;;;;20.92;13.90;;;19.80;99.90;;;;;;6185024;23;20001;-75
2023/07/28 03:18:55;;;;;;;22.80;16.55;;;19.80;99.90;;;;;;6211935;23;20005;-75
2023/07/28 03:21:21;;;;;;;23.10;16.80;;;19.80;99.90;;;;;;6187198;23;20021;-75
2023/07/28 03:23:47;;;;;;;23.05;15.82;;;19.80;99.90;;;;;;6213744;23;20001;-75
2023/07/28 03:26:12;;;;;;;25.17;17.45;;;19.80;99.90;;;;;;6213827;23;20059;-75
2023/07/28 03:28:38;;;;;;;24.30;16.92;;;19.80;99.90;;;;;;6213789;23;19992;-75
2023/07/28 03:31:03;;;;;;;21.75;17.27;;;19.80;99.90;;;;;;6213024;23;20008;-76
2023/07/28 03:33:29;;;;;;;28.08;17.67;;;19.80;99.90;;;;;;6213830;23;19997;-75
2023/07/28 03:35:54;;;;;;;26.98;17.55;;;19.70;99.90;;;;;;6186982;23;20084;-76
2023/07/28 03:38:20;;;;;;;26.25;17.15;;;19.80;99.90;;;;;;6213568;23;20374;-75
2023/07/28 03:40:46;;;;;;;23.73;17.42;;;19.70;99.90;;;;;;6213817;23;20001;-76
2023/07/28 03:43:11;;;;;;;28.25;20.23;;;19.80;99.90;;;;;;6186924;23;20012;-76
2023/07/28 03:45:37;;;;;;;25.02;18.50;;;19.80;99.90;;;;;;6213072;23;20036;-76
2023/07/28 03:48:02;;;;;;;28.73;18.67;;;19.80;99.90;;;;;;6186817;23;20009;-75
2023/07/28 03:50:28;;;;;;;31.45;18.98;;;19.80;99.90;;;;;;6213453;23;20322;-75
2023/07/28 03:52:54;;;;;;;28.88;19.92;;;19.80;99.90;;;;;;6213203;23;20017;-75
2023/07/28 03:55:20;;;;;;;33.10;20.45;;;19.70;99.90;;;;;;6186830;23;20084;-75
2023/07/28 03:57:45;;;;;;;27.00;18.33;;;19.70;99.90;;;;;;6213459;23;20021;-75
2023/07/28 04:00:13;;;;;;;28.70;19.48;;;19.80;99.90;;;;;;6213021;23;20395;-75
2023/07/28 04:02:39;;;;;;;30.40;20.23;;;19.80;99.90;;;;;;6186668;23;20000;-75
2023/07/28 04:05:05;;;;;;;29.30;19.17;;;19.80;99.90;;;;;;6186626;23;20007;-75
2023/07/28 04:07:30;;;;;;;31.15;18.65;;;19.80;99.90;;;;;;6213431;23;20074;-75
2023/07/28 04:09:56;;;;;;;29.67;18.80;;;19.80;99.90;;;;;;6213241;23;20015;-75
2023/07/28 04:12:21;;;;;;;27.15;18.98;;;19.80;99.90;;;;;;6213130;23;20059;-76
2023/07/28 04:14:47;;;;;;;31.70;20.83;;;19.80;99.90;;;;;;6212730;23;20012;-75
2023/07/28 04:17:13;;;;;;;34.75;21.10;;;19.80;99.90;;;;;;6213108;23;20009;-75
2023/07/28 04:19:38;;;;;;;31.95;19.85;;;19.80;99.90;;;;;;6186747;23;20004;-75
2023/07/28 04:22:04;;;;;;;33.50;21.65;;;19.80;99.90;;;;;;6186687;23;20015;-75
2023/07/28 04:24:29;;;;;;;28.15;18.23;;;19.70;99.90;;;;;;6186800;23;20009;-75
2023/07/28 04:26:55;;;;;;;30.10;19.98;;;19.80;99.90;;;;;;6213103;23;20015;-75
2023/07/28 04:29:21;;;;;;;32.45;20.20;;;19.80;99.90;;;;;;6212598;23;20004;-75
2023/07/28 04:31:46;;;;;;;28.65;19.65;;;19.80;99.90;;;;;;6212625;23;19997;-75
2023/07/28 04:34:12;;;;;;;30.40;21.65;;;19.80;99.90;;;;;;6213155;23;20012;-75
2023/07/28 04:36:37;;;;;;;31.10;18.08;;;19.80;99.90;;;;;;6186545;23;20004;-75
2023/07/28 04:39:03;;;;;;;36.67;20.58;;;19.80;99.90;;;;;;6212738;23;20536;-74
2023/07/28 04:41:29;;;;;;;35.55;20.65;;;19.80;99.90;;;;;;6213191;23;20092;-74
2023/07/28 04:43:54;;;;;;;30.35;20.05;;;19.80;99.90;;;;;;6212414;23;20015;-74
2023/07/28 04:46:20;;;;;;;33.45;20.08;;;19.70;99.90;;;;;;6212819;23;20330;-75
2023/07/28 04:48:46;;;;;;;30.63;19.88;;;19.80;99.90;;;;;;6212936;23;20005;-75
2023/07/28 04:51:11;;;;;;;27.38;19.52;;;19.80;99.90;;;;;;6186059;23;20016;-75
2023/07/28 04:53:37;;;;;;;37.13;21.50;;;19.80;99.90;;;;;;6212741;23;20013;-74
2023/07/28 04:56:03;;;;;;;35.20;22.50;;;19.80;99.90;;;;;;6212723;23;20004;-74
2023/07/28 04:58:29;;;;;;;28.88;21.25;;;19.80;99.90;;;;;;6212499;23;20003;-75
2023/07/28 05:00:55;;;;;;;39.33;23.27;;;19.80;99.90;;;;;;6212720;23;20011;-74
2023/07/28 05:03:20;;;;;;;29.52;21.55;;;19.90;99.90;;;;;;6212849;23;20422;-74
2023/07/28 05:05:46;;;;;;;30.15;20.58;;;19.90;99.90;;;;;;6212738;23;20008;-75
2023/07/28 05:08:11;;;;;;;43.10;23.27;;;19.90;99.90;;;;;;6212756;23;20036;-75
2023/07/28 05:10:37;;;;;;;33.03;21.30;;;19.90;99.90;;;;;;6185975;23;20008;-75
2023/07/28 05:13:04;;;;;;;36.38;22.58;;;19.90;99.90;;;;;;6212057;23;19997;-74
2023/07/28 05:15:30;;;;;;;39.40;25.13;;;19.90;99.90;;;;;;6212828;23;20000;-75
2023/07/28 05:17:55;;;;;;;32.10;22.92;;;19.90;99.90;;;;;;6212635;23;20075;-75
2023/07/28 05:20:21;;;;;;;43.10;26.20;;;19.90;99.90;;;;;;6212440;23;20008;-75
2023/07/28 05:22:47;;;;;;;42.97;26.00;;;19.90;99.90;;;;;;6212675;23;20004;-75
2023/07/28 05:25:12;;;;;;;40.78;24.90;;;19.90;99.90;;;;;;6212527;23;20091;-75
2023/07/28 05:27:38;;;;;;;41.33;24.80;;;19.90;99.90;;;;;;6212032;23;20000;-75
2023/07/28 05:30:04;;;;;;;37.60;23.52;;;19.90;99.90;;;;;;6212331;23;20013;-75
2023/07/28 05:32:31;;;;;;;36.65;22.65;;;19.90;99.90;;;;;;6212898;23;19997;-75
2023/07/28 05:34:56;;;;;;;37.65;23.50;;;19.90;99.90;;;;;;6212541;23;20009;-75
2023/07/28 05:37:22;;;;;;;35.08;23.92;;;19.90;99.90;;;;;;6212440;23;20013;-75
2023/07/28 05:39:47;;;;;;;34.80;23.92;;;19.90;99.90;;;;;;6185811;23;20015;-75
2023/07/28 05:42:13;;;;;;;35.25;23.58;;;19.90;99.90;;;;;;6211841;23;20000;-75
2023/07/28 05:44:38;;;;;;;34.92;23.30;;;19.90;99.90;;;;;;6212384;23;20001;-75
2023/07/28 05:47:04;;;;;;;43.50;24.58;;;20.00;99.90;;;;;;6212424;23;20329;-75
2023/07/28 05:49:30;;;;;;;36.13;23.50;;;20.00;99.90;;;;;;6212412;23;19996;-75
2023/07/28 05:51:56;;;;;;;28.40;21.05;;;20.00;99.90;;;;;;6212355;23;20011;-75
2023/07/28 05:54:21;;;;;;;30.50;22.33;;;20.00;99.90;;;;;;6212043;23;20025;-76
2023/07/28 05:56:47;;;;;;;27.70;19.90;;;20.00;99.90;;;;;;6211811;23;20389;-75
2023/07/28 05:59:12;;;;;;;31.67;20.67;;;20.10;99.90;;;;;;6211991;23;20035;-75
2023/07/28 06:01:38;;;;;;;31.98;20.63;;;20.10;99.90;;;;;;6212368;23;20000;-75
2023/07/28 06:04:04;;;;;;;34.75;21.33;;;20.10;99.90;;;;;;6212176;23;20080;-75
2023/07/28 06:06:29;;;;;;;30.52;20.13;;;20.10;99.90;;;;;;6212370;23;20334;-75
2023/07/28 06:08:55;;;;;;;26.15;19.90;;;20.10;99.90;;;;;;6212015;23;20079;-76
2023/07/28 06:11:21;;;;;;;29.77;21.50;;;20.10;99.90;;;;;;6211349;23;20004;-75
2023/07/28 06:13:47;;;;;;;33.15;20.38;;;20.10;99.90;;;;;;6212096;23;20005;-75
2023/07/28 06:16:14;;;;;;;32.60;20.15;;;20.20;99.90;;;;;;6211957;23;20032;-76
2023/07/28 06:18:39;;;;;;;33.20;21.55;;;20.20;99.90;;;;;;6185601;23;20445;-75
2023/07/28 06:21:05;;;;;;;28.40;21.63;;;20.20;99.90;;;;;;6212219;23;20012;-75
2023/07/28 06:23:30;;;;;;;30.23;19.92;;;20.20;99.90;;;;;;6185725;23;20004;-76
2023/07/28 06:25:56;;;;;;;30.13;21.33;;;20.30;99.90;;;;;;6211461;23;20493;-75
2023/07/28 06:28:22;;;;;;;32.35;21.30;;;20.30;99.90;;;;;;6211935;23;20012;-75
2023/07/28 06:30:47;;;;;;;31.85;22.42;;;20.30;99.90;;;;;;6211924;23;20008;-76
2023/07/28 06:33:13;;;;;;;27.08;19.95;;;20.30;99.90;;;;;;6211998;23;20415;-75
2023/07/28 06:35:38;;;;;;;33.65;20.95;;;20.30;99.90;;;;;;6212056;23;20055;-75
2023/07/28 06:38:04;;;;;;;31.80;20.73;;;20.30;99.90;;;;;;6211753;23;20027;-75
2023/07/28 06:40:30;;;;;;;30.75;22.17;;;20.30;99.90;;;;;;6211838;23;20005;-75
2023/07/28 06:42:55;;;;;;;31.65;23.05;;;20.40;99.90;;;;;;6211886;23;20015;-75
2023/07/28 06:45:21;;;;;;;33.83;22.52;;;20.40;99.90;;;;;;6211847;23;20687;-76
2023/07/28 06:47:47;;;;;;;37.22;24.38;;;20.40;99.90;;;;;;6211862;23;20007;-75
2023/07/28 06:50:13;;;;;;;37.00;24.20;;;20.40;99.90;;;;;;6211852;23;20035;-76
2023/07/28 06:52:38;;;;;;;33.50;24.30;;;20.50;99.90;;;;;;6212014;23;20020;-75
2023/07/28 06:55:04;;;;;;;33.22;23.67;;;20.40;99.90;;;;;;6210973;23;20330;-75
2023/07/28 06:57:31;;;;;;;35.33;25.90;;;20.50;99.90;;;;;;6211880;23;20041;-75
2023/07/28 06:59:56;;;;;;;33.88;24.85;;;20.50;99.90;;;;;;6211726;23;20000;-76
2023/07/28 07:02:22;;;;;;;35.67;25.40;;;20.40;99.90;;;;;;6215366;23;20005;-90
2023/07/28 07:04:48;;;;;;;36.53;24.20;;;20.50;99.90;;;;;;6188160;23;20001;-89
2023/07/28 07:07:13;;;;;;;40.83;26.42;;;20.50;99.90;;;;;;6214110;23;20047;-89
2023/07/28 07:09:40;;;;;;;33.95;24.30;;;20.60;99.90;;;;;;6187497;23;20008;-89
2023/07/28 07:12:08;;;;;;;36.95;25.20;;;20.70;99.90;;;;;;6187593;23;20012;-89
2023/07/28 07:14:33;;;;;;;30.52;23.00;;;20.80;99.90;;;;;;6186813;23;20004;-84
2023/07/28 07:16:59;;;;;;;29.15;22.30;;;20.90;99.90;;;;;;6183875;23;20008;-86
2023/07/28 07:19:24;;;;;;;33.47;22.95;;;21.00;99.90;;;;;;6211356;23;20323;-87
2023/07/28 07:21:50;;;;;;;28.20;21.00;;;21.00;99.90;;;;;;6185027;23;20035;-88
2023/07/28 07:24:16;;;;;;;30.33;23.52;;;21.10;99.90;;;;;;6184872;23;20058;-86
2023/07/28 07:26:42;;;;;;;25.17;20.75;;;21.00;99.90;;;;;;6212130;23;20000;-88
2023/07/28 07:29:10;;;;;;;26.70;19.25;;;21.10;99.90;;;;;;6185627;23;20102;-85
2023/07/28 07:31:36;;;;;;;27.27;19.63;;;21.10;99.90;;;;;;6211024;23;20008;-86
2023/07/28 07:34:04;;;;;;;27.50;19.70;;;21.10;99.90;;;;;;6185166;23;20430;-86
2023/07/28 07:36:30;;;;;;;26.88;18.17;;;21.10;99.90;;;;;;6184222;23;20381;-86
2023/07/28 07:38:55;;;;;;;21.33;17.30;;;21.10;99.90;;;;;;6184435;23;20059;-86
2023/07/28 07:41:22;;;;;;;25.92;18.52;;;21.10;99.90;;;;;;6185035;23;20792;-86
2023/07/28 07:43:49;;;;;;;20.92;16.98;;;21.20;99.90;;;;;;6184875;23;20009;-87
2023/07/28 07:46:16;;;;;;;22.45;17.98;;;21.20;99.90;;;;;;6184232;23;20336;-86
2023/07/28 07:48:42;;;;;;;21.63;15.80;;;21.30;99.90;;;;;;6211323;23;20008;-84
2023/07/28 07:51:08;;;;;;;19.10;15.95;;;21.40;99.90;;;;;;6184055;23;20134;-84
2023/07/28 07:53:36;;;;;;;26.40;16.75;;;21.40;99.90;;;;;;6197278;23;20012;-85
2023/07/28 07:56:02;;;;;;;17.40;15.07;;;21.50;99.90;;;;;;6209543;23;20598;-85
2023/07/28 07:58:28;;;;;;;19.83;16.38;;;21.50;99.90;;;;;;6210655;23;20008;-87
2023/07/28 08:00:55;;;;;;;19.42;16.10;;;21.60;99.90;;;;;;6210880;23;20013;-87
2023/07/28 08:03:20;;;;;;;19.35;16.50;;;21.60;99.90;;;;;;6212299;23;20007;-86
2023/07/28 08:05:46;;;;;;;24.27;17.00;;;21.60;99.90;;;;;;6211743;23;20072;-88
2023/07/28 08:08:15;;;;;;;22.30;17.35;;;21.60;99.90;;;;;;6212652;23;20422;-87
2023/07/28 08:10:40;;;;;;;23.27;17.65;;;21.70;99.90;;;;;;6212782;23;20040;-86
2023/07/28 08:13:06;;;;;;;22.98;18.75;;;21.60;99.90;;;;;;6214078;23;20004;-88
2023/07/28 08:15:31;;;;;;;22.73;17.75;;;21.60;99.90;;;;;;6212470;23;20496;-87
2023/07/28 08:17:57;;;;;;;24.98;18.45;;;21.60;99.90;;;;;;6212127;23;20013;-87
2023/07/28 08:20:22;;;;;;;21.98;17.17;;;21.60;99.90;;;;;;6211495;23;20008;-86
2023/07/28 08:22:48;;;;;;;18.63;16.25;;;21.60;99.90;;;;;;6211440;23;20004;-85
2023/07/28 08:25:14;;;;;;;17.27;15.52;;;21.70;99.90;;;;;;6211393;23;20009;-85
2023/07/28 08:27:39;;;;;;;17.75;15.68;;;21.80;99.90;;;;;;6210345;23;20063;-86
2023/07/28 08:30:05;;;;;;;18.38;15.23;;;21.80;99.90;;;;;;6210941;23;20489;-87
2023/07/28 08:32:32;;;;;;;19.33;15.52;;;21.90;99.90;;;;;;6210936;23;20001;-86
2023/07/28 08:34:57;;;;;;;18.17;15.23;;;21.90;99.90;;;;;;6210419;23;20009;-86
2023/07/28 08:37:23;;;;;;;18.70;14.93;;;21.90;99.90;;;;;;6211580;23;20322;-83
2023/07/28 08:39:48;;;;;;;17.77;14.35;;;21.90;99.90;;;;;;6211372;23;20064;-82
2023/07/28 08:42:15;;;;;;;19.73;15.52;;;21.90;99.90;;;;;;6212920;23;20000;-84
2023/07/28 08:44:41;;;;;;;17.67;14.07;;;21.90;99.90;;;;;;6211395;23;20009;-85
2023/07/28 08:47:07;;;;;;;15.40;13.57;;;21.90;99.90;;;;;;6211089;23;20004;-85
2023/07/28 08:49:35;;;;;;;16.45;13.07;;;22.00;99.90;;;;;;6213581;23;20059;-86
2023/07/28 08:52:01;;;;;;;15.35;13.73;;;22.10;99.90;;;;;;6212998;23;20005;-86
2023/07/28 08:54:27;;;;;;;15.23;13.32;;;22.20;99.90;;;;;;6213115;23;20087;-87
2023/07/28 08:56:53;;;;;;;14.68;13.13;;;22.30;99.90;;;;;;6186553;23;20001;-86
2023/07/28 08:59:25;;;;;;;14.23;12.77;;;22.30;99.90;;;;;;6186488;23;20011;-86
2023/07/28 09:01:51;;;;;;;17.10;12.90;;;22.30;99.90;;;;;;6213161;23;19997;-85
2023/07/28 09:04:17;;;;;;;14.00;11.73;;;22.30;99.90;;;;;;6185632;23;20052;-85
2023/07/28 09:06:47;;;;;;;15.68;13.05;;;22.40;99.90;;;;;;6186501;23;20083;-85
2023/07/28 09:09:14;;;;;;;13.55;11.10;;;22.40;99.90;;;;;;6212868;23;20390;-86
2023/07/28 09:11:47;;;;;;;12.30;11.10;;;22.30;99.90;;;;;;6212887;23;20000;-85
2023/07/28 09:14:16;;;;;;;;;;;22.30;99.90;;;;;;6187137;23;20315;-86
2023/07/28 09:16:42;;;;;;;14.75;12.20;;;22.40;99.90;;;;;;6187158;23;19907;-85
2023/07/28 09:19:08;;;;;;;17.67;14.15;;;22.40;99.90;;;;;;6186024;23;20004;-86
2023/07/28 09:21:35;;;;;;;16.13;13.40;;;22.40;99.90;;;;;;6213769;23;20455;-86
2023/07/28 09:24:03;;;;;;;15.55;13.13;;;22.30;99.90;;;;;;6186903;23;20009;-86
2023/07/28 09:26:45;;;;;;;14.13;12.40;;;22.30;99.90;;;;;;6186630;23;20008;-86
2023/07/28 09:29:15;;;;;;;13.15;11.93;;;22.50;99.90;;;;;;6212552;23;19996;-85
2023/07/28 09:31:42;;;;;;;15.73;12.07;;;22.60;99.90;;;;;;6212822;23;20000;-85
2023/07/28 09:34:09;;;;;;;19.10;13.35;;;22.70;99.90;;;;;;6185456;23;20005;-86
2023/07/28 09:36:35;;;;;;;15.82;14.13;;;22.90;99.90;;;;;;6186218;23;20000;-86
2023/07/28 09:39:02;;;;;;;15.40;13.55;;;22.90;99.90;;;;;;6185942;23;20012;-86
2023/07/28 09:41:30;;;;;;;15.48;13.70;;;23.00;99.90;;;;;;6186071;23;20456;-86
2023/07/28 09:43:56;;;;;;;15.13;13.63;;;23.10;99.90;;;;;;6185733;23;20004;-85
2023/07/28 09:46:24;;;;;;;13.90;12.50;;;23.10;99.90;;;;;;6185595;23;20438;-86
2023/07/28 09:48:55;;;;;;;17.27;15.48;;;23.30;99.90;;;;;;6185511;23;20492;-85
2023/07/28 09:51:22;;;;;;;13.52;11.98;;;23.60;99.90;;;;;;6185450;23;20033;-85
2023/07/28 09:54:10;;;;;;;14.88;13.35;;;23.70;99.90;;;;;;6201261;23;20323;-85
2023/07/28 09:56:36;;;;;;;14.38;12.70;;;23.80;99.90;;;;;;6212721;23;20007;-85
2023/07/28 09:59:07;;;;;;;15.13;13.65;;;23.80;99.90;;;;;;6211877;23;20012;-84
2023/07/28 10:01:33;;;;;;;14.75;13.20;;;23.80;99.90;;;;;;6211954;23;20472;-85
2023/07/28 10:03:59;;;;;;;15.18;13.77;;;23.90;99.90;;;;;;6212116;23;20071;-85
2023/07/28 10:06:26;;;;;;;15.85;13.95;;;24.00;99.90;;;;;;6210557;23;20342;-85
2023/07/28 10:08:52;;;;;;;13.07;11.77;;;24.00;99.90;;;;;;6210587;23;20073;-84
2023/07/28 10:11:18;;;;;;;14.10;12.60;;;24.10;99.90;;;;;;6210484;23;20047;-85
2023/07/28 10:13:46;;;;;;;13.60;11.88;;;24.20;99.90;;;;;;6211991;23;20003;-84
2023/07/28 10:16:14;;;;;;;13.88;12.50;;;24.40;99.90;;;;;;6210008;23;20497;-86
2023/07/28 10:18:40;;;;;;;13.30;12.00;;;24.50;99.90;;;;;;6210928;23;20004;-85
2023/07/28 10:21:09;;;;;;;13.43;12.07;;;24.60;99.90;;;;;;6209986;23;20043;-85
2023/07/28 10:23:37;;;;;;;12.00;10.77;;;24.80;99.90;;;;;;6212166;23;20000;-85
2023/07/28 10:26:06;;;;;;;12.55;11.23;;;24.90;99.90;;;;;;6212024;23;20458;-85
2023/07/28 10:28:38;;;;;;;16.08;12.98;;;24.90;99.90;;;;;;6210524;23;20016;-85
2023/07/28 10:31:06;;;;;;;15.73;13.63;;;24.80;99.90;;;;;;6209405;23;20346;-86
2023/07/28 10:33:39;;;;;;;14.73;13.32;;;24.80;99.90;;;;;;6210369;23;20334;-86
2023/07/28 10:36:23;;;;;;;14.23;12.57;;;24.90;99.90;;;;;;6212727;23;20090;-84
2023/07/28 10:39:17;;;;;;;12.07;10.88;;;24.90;99.90;;;;;;6210489;23;20063;-83
2023/07/28 10:42:02;;;;;;;;;;;25.00;99.90;;;;;;6203860;23;20062;-82
2023/07/28 10:44:28;;;;;;;14.15;11.88;;;25.00;99.90;;;;;;6211830;23;19900;-82
2023/07/28 10:46:54;;;;;;;14.38;12.98;;;25.00;99.90;;;;;;6211163;23;20102;-82
2023/07/28 10:49:20;;;;;;;14.73;13.27;;;25.10;99.90;;;;;;6211496;23;20071;-82
2023/07/28 10:51:46;;;;;;;15.60;14.10;;;25.20;99.90;;;;;;6211337;23;20031;-83
2023/07/28 10:54:15;;;;;;;14.23;12.90;;;25.10;99.90;;;;;;6210949;23;20012;-82
2023/07/28 10:56:41;;;;;;;13.82;12.43;;;25.20;99.90;;;;;;6185003;23;20027;-81
2023/07/28 10:59:06;;;;;;;13.45;12.07;;;25.20;99.90;;;;;;6184445;23;20005;-82
2023/07/28 11:01:37;;;;;;;16.67;14.93;;;25.30;99.90;;;;;;6210930;23;20036;-82
2023/07/28 11:04:20;;;;;;;15.25;12.75;;;25.40;99.90;;;;;;6184602;23;20291;-83
2023/07/28 11:06:47;;;;;;;11.82;10.73;;;25.50;99.90;;;;;;6210987;23;20004;-82
2023/07/28 11:09:14;;;;;;;11.52;9.95;;;25.40;99.90;;;;;;6184811;23;20343;-81
2023/07/28 11:11:41;;;;;;;10.27;9.38;;;25.30;99.70;;;;;;6209465;23;20309;-82
2023/07/28 11:14:07;;;;;;;10.68;9.75;;;25.30;99.60;;;;;;6182798;23;20312;-82
2023/07/28 11:16:39;;;;;;;12.13;10.98;;;25.30;99.40;;;;;;6183663;23;20004;-81
2023/07/28 11:19:10;;;;;;;13.63;12.20;;;25.30;99.50;;;;;;6183740;23;20012;-81
2023/07/28 11:21:40;;;;;;;13.02;11.75;;;25.20;99.50;;;;;;6184276;23;20299;-81
2023/07/28 11:24:10;;;;;;;14.18;12.13;;;25.30;99.80;;;;;;6210365;23;20009;-82
2023/07/28 11:26:37;;;;;;;13.23;11.82;;;25.40;99.90;;;;;;6184675;23;20430;-81
2023/07/28 11:29:04;;;;;;;13.40;12.10;;;25.50;99.70;;;;;;6183804;23;20430;-82
2023/07/28 11:31:30;;;;;;;13.70;12.40;;;25.60;99.50;;;;;;6184987;23;20004;-80
2023/07/28 11:33:55;;;;;;;13.27;12.00;;;25.70;99.40;;;;;;6184864;23;20012;-81
2023/07/28 11:36:28;;;;;;;12.95;11.52;;;25.70;99.60;;;;;;6211261;23;20383;-81
2023/07/28 11:38:57;;;;;;;13.35;11.43;;;25.80;98.90;;;;;;6211461;23;20001;-81
2023/07/28 11:41:23;;;;;;;12.57;11.48;;;25.90;98.90;;;;;;6186501;23;20095;-87
2023/07/28 11:43:50;;;;;;;10.48;9.45;;;25.90;98.70;;;;;;6186523;23;20385;-87
2023/07/28 11:46:45;;;;;;;11.55;10.13;;;26.00;98.40;;;;;;6213107;23;20032;-87
2023/07/28 11:49:13;;;;;;;9.10;8.30;;;26.00;98.20;;;;;;6194306;23;20016;-88
2023/07/28 11:51:47;;;;;;;11.40;8.95;;;26.10;98.10;;;;;;6187848;23;20015;-88
2023/07/28 11:54:19;;;;;;;10.75;9.63;;;26.20;97.90;;;;;;6214585;23;20023;-86
2023/07/28 11:56:46;;;;;;;10.05;9.05;;;26.30;97.80;;;;;;6187729;23;20005;-86
2023/07/28 11:59:15;;;;;;;11.10;9.95;;;26.40;97.80;;;;;;6185737;23;20008;-87
2023/07/28 12:01:59;;;;;;;12.02;9.43;;;26.40;97.50;;;;;;6214064;23;20008;-87
2023/07/28 12:04:27;;;;;;;10.90;9.43;;;26.50;97.40;;;;;;6186421;23;20004;-86
2023/07/28 12:07:16;;;;;;;8.52;7.72;;;26.40;97.10;;;;;;6186614;23;20426;-81
2023/07/28 12:09:48;;;;;;;9.25;8.43;;;26.40;96.80;;;;;;6186796;23;20013;-85
2023/07/28 12:12:16;;;;;;;10.05;9.07;;;26.40;96.90;;;;;;6212622;23;20036;-83
2023/07/28 12:14:41;;;;;;;11.02;9.90;;;26.40;96.80;;;;;;6213697;23;20004;-83
2023/07/28 12:17:14;;;;;;;10.88;9.48;;;26.40;96.70;;;;;;6212672;23;20050;-83
2023/07/28 12:20:10;;;;;;;9.48;8.35;;;26.40;96.80;;;;;;6213405;23;20485;-83
2023/07/28 12:22:37;;;;;;;10.43;9.43;;;26.50;96.70;;;;;;6213328;23;20001;-83
2023/07/28 12:25:04;;;;;;;9.85;8.50;;;26.60;96.70;;;;;;6212409;23;20005;-83
2023/07/28 12:27:30;;;;;;;10.25;9.25;;;26.60;96.60;;;;;;6212380;23;20423;-82
2023/07/28 12:29:56;;;;;;;9.27;8.23;;;26.60;96.60;;;;;;6186196;23;20015;-83